sensor_id;sensor_type;location;lat;lon;timestamp;pressure;altitude;pressure_sealevel;temperature;humidity
80777;BME280;70169;51.262;6.336;2024-02-21T00:01:26;101806.22;;;7.84;94.77
80777;BME280;70169;51.262;6.336;2024-02-21T00:03:42;101794.88;;;7.83;95.19
80777;BME280;70169;51.262;6.336;2024-02-21T00:05:57;101794.22;;;7.81;95.39
80777;BME280;70169;51.262;6.336;2024-02-21T00:08:12;101793.44;;;7.89;94.86
80777;BME280;70169;51.262;6.336;2024-02-21T00:10:28;101784.50;;;7.82;95.22
80777;BME280;70169;51.262;6.336;2024-02-21T00:12:43;101786.00;;;7.84;95.52
80777;BME280;70169;51.262;6.336;2024-02-21T00:14:59;101788.13;;;7.81;95.42
80777;BME280;70169;51.262;6.336;2024-02-21T00:17:14;101780.38;;;7.79;95.64
80777;BME280;70169;51.262;6.336;2024-02-21T00:19:29;101777.91;;;7.78;95.79
80777;BME280;70169;51.262;6.336;2024-02-21T00:21:45;101780.53;;;7.78;95.79
80777;BME280;70169;51.262;6.336;2024-02-21T00:24:00;101769.47;;;7.74;96.11
80777;BME280;70169;51.262;6.336;2024-02-21T00:26:15;101763.69;;;7.71;96.07
80777;BME280;70169;51.262;6.336;2024-02-21T00:28:31;101761.59;;;7.74;96.61
80777;BME280;70169;51.262;6.336;2024-02-21T00:30:46;101752.22;;;7.72;96.03
80777;BME280;70169;51.262;6.336;2024-02-21T00:33:02;101767.00;;;7.73;95.81
80777;BME280;70169;51.262;6.336;2024-02-21T00:35:18;101768.00;;;7.72;96.62
80777;BME280;70169;51.262;6.336;2024-02-21T00:37:33;101764.72;;;7.70;96.70
80777;BME280;70169;51.262;6.336;2024-02-21T00:39:48;101766.84;;;7.74;96.69
80777;BME280;70169;51.262;6.336;2024-02-21T00:42:04;101767.19;;;7.71;96.64
80777;BME280;70169;51.262;6.336;2024-02-21T00:44:19;101758.13;;;7.74;96.68
80777;BME280;70169;51.262;6.336;2024-02-21T00:46:35;101749.28;;;7.75;96.38
80777;BME280;70169;51.262;6.336;2024-02-21T00:48:50;101763.59;;;7.80;96.22
80777;BME280;70169;51.262;6.336;2024-02-21T00:51:05;101755.03;;;7.78;96.25
80777;BME280;70169;51.262;6.336;2024-02-21T00:53:21;101750.75;;;7.77;96.57
80777;BME280;70169;51.262;6.336;2024-02-21T00:55:36;101741.06;;;7.78;96.79
80777;BME280;70169;51.262;6.336;2024-02-21T00:57:51;101746.63;;;7.75;96.46
80777;BME280;70169;51.262;6.336;2024-02-21T01:00:07;101748.97;;;7.78;96.08
80777;BME280;70169;51.262;6.336;2024-02-21T01:02:23;101742.19;;;7.75;96.16
80777;BME280;70169;51.262;6.336;2024-02-21T01:04:38;101743.00;;;7.76;96.52
80777;BME280;70169;51.262;6.336;2024-02-21T01:06:53;101739.56;;;7.75;96.10
80777;BME280;70169;51.262;6.336;2024-02-21T01:09:09;101737.63;;;7.85;96.59
80777;BME280;70169;51.262;6.336;2024-02-21T01:11:24;101727.06;;;7.77;96.22
80777;BME280;70169;51.262;6.336;2024-02-21T01:13:40;101729.38;;;7.80;95.87
80777;BME280;70169;51.262;6.336;2024-02-21T01:15:55;101725.13;;;7.79;96.22
80777;BME280;70169;51.262;6.336;2024-02-21T01:18:11;101714.59;;;7.79;95.95
80777;BME280;70169;51.262;6.336;2024-02-21T01:20:26;101714.06;;;7.76;96.01
80777;BME280;70169;51.262;6.336;2024-02-21T01:22:41;101714.06;;;7.76;96.28
80777;BME280;70169;51.262;6.336;2024-02-21T01:24:56;101710.59;;;7.75;96.81
80777;BME280;70169;51.262;6.336;2024-02-21T01:27:12;101704.53;;;7.75;96.07
80777;BME280;70169;51.262;6.336;2024-02-21T01:29:27;101705.84;;;7.79;96.59
80777;BME280;70169;51.262;6.336;2024-02-21T01:31:42;101697.59;;;7.74;96.66
80777;BME280;70169;51.262;6.336;2024-02-21T01:33:58;101701.06;;;7.74;96.52
80777;BME280;70169;51.262;6.336;2024-02-21T01:36:13;101693.53;;;7.79;96.30
80777;BME280;70169;51.262;6.336;2024-02-21T01:38:28;101690.75;;;7.81;95.46
80777;BME280;70169;51.262;6.336;2024-02-21T01:40:44;101687.97;;;7.82;95.82
80777;BME280;70169;51.262;6.336;2024-02-21T01:42:59;101691.25;;;7.84;95.74
80777;BME280;70169;51.262;6.336;2024-02-21T01:45:15;101690.59;;;7.82;95.82
80777;BME280;70169;51.262;6.336;2024-02-21T01:47:30;101690.91;;;7.79;96.10
80777;BME280;70169;51.262;6.336;2024-02-21T01:49:45;101685.78;;;7.78;96.39
80777;BME280;70169;51.262;6.336;2024-02-21T01:52:02;101688.75;;;7.75;96.49
80777;BME280;70169;51.262;6.336;2024-02-21T01:54:18;101683.31;;;7.76;96.32
80777;BME280;70169;51.262;6.336;2024-02-21T01:56:34;101667.69;;;7.75;96.45
80777;BME280;70169;51.262;6.336;2024-02-21T01:58:50;101669.31;;;7.76;97.04
80777;BME280;70169;51.262;6.336;2024-02-21T02:01:06;101665.38;;;7.72;96.82
80777;BME280;70169;51.262;6.336;2024-02-21T02:03:21;101656.47;;;7.73;96.99
80777;BME280;70169;51.262;6.336;2024-02-21T02:05:37;101659.63;;;7.76;96.79
80777;BME280;70169;51.262;6.336;2024-02-21T02:07:52;101655.50;;;7.74;96.51
80777;BME280;70169;51.262;6.336;2024-02-21T02:10:08;101645.78;;;7.74;96.84
80777;BME280;70169;51.262;6.336;2024-02-21T02:12:25;101639.06;;;7.72;96.37
80777;BME280;70169;51.262;6.336;2024-02-21T02:14:40;101641.53;;;7.73;96.50
80777;BME280;70169;51.262;6.336;2024-02-21T02:16:56;101632.78;;;7.73;96.33
80777;BME280;70169;51.262;6.336;2024-02-21T02:19:11;101639.72;;;7.74;96.44
80777;BME280;70169;51.262;6.336;2024-02-21T02:21:30;101636.91;;;7.75;96.16
80777;BME280;70169;51.262;6.336;2024-02-21T02:23:47;101642.66;;;7.71;96.92
80777;BME280;70169;51.262;6.336;2024-02-21T02:26:02;101645.94;;;7.73;96.42
80777;BME280;70169;51.262;6.336;2024-02-21T02:28:18;101651.03;;;7.74;96.04
80777;BME280;70169;51.262;6.336;2024-02-21T02:30:35;101643.31;;;7.73;96.75
80777;BME280;70169;51.262;6.336;2024-02-21T02:32:51;101651.91;;;7.75;96.49
80777;BME280;70169;51.262;6.336;2024-02-21T02:35:06;101646.13;;;7.71;95.81
80777;BME280;70169;51.262;6.336;2024-02-21T02:37:21;101638.03;;;7.73;95.98
80777;BME280;70169;51.262;6.336;2024-02-21T02:39:37;101644.00;;;7.75;96.08
80777;BME280;70169;51.262;6.336;2024-02-21T02:41:52;101646.78;;;7.73;96.81
80777;BME280;70169;51.262;6.336;2024-02-21T02:44:07;101641.69;;;7.72;96.44
80777;BME280;70169;51.262;6.336;2024-02-21T02:46:22;101628.53;;;7.72;96.19
80777;BME280;70169;51.262;6.336;2024-02-21T02:48:38;101628.38;;;7.73;96.33
80777;BME280;70169;51.262;6.336;2024-02-21T02:50:53;101621.13;;;7.75;96.19
80777;BME280;70169;51.262;6.336;2024-02-21T02:53:09;101612.25;;;7.76;96.08
80777;BME280;70169;51.262;6.336;2024-02-21T02:55:24;101604.84;;;7.72;95.99
80777;BME280;70169;51.262;6.336;2024-02-21T02:57:41;101605.16;;;7.69;96.35
80777;BME280;70169;51.262;6.336;2024-02-21T02:59:59;101601.88;;;7.66;96.28
80777;BME280;70169;51.262;6.336;2024-02-21T03:02:14;101604.34;;;7.68;97.04
80777;BME280;70169;51.262;6.336;2024-02-21T03:04:29;101599.38;;;7.65;97.15
80777;BME280;70169;51.262;6.336;2024-02-21T03:06:45;101602.03;;;7.65;97.02
80777;BME280;70169;51.262;6.336;2024-02-21T03:09:00;101602.38;;;7.70;97.34
80777;BME280;70169;51.262;6.336;2024-02-21T03:11:15;101580.28;;;7.63;96.97
80777;BME280;70169;51.262;6.336;2024-02-21T03:13:31;101584.41;;;7.65;97.72
80777;BME280;70169;51.262;6.336;2024-02-21T03:15:46;101586.22;;;7.65;97.06
80777;BME280;70169;51.262;6.336;2024-02-21T03:18:01;101574.69;;;7.66;97.25
80777;BME280;70169;51.262;6.336;2024-02-21T03:20:17;101574.22;;;7.62;96.45
80777;BME280;70169;51.262;6.336;2024-02-21T03:22:32;101573.38;;;7.62;96.71
80777;BME280;70169;51.262;6.336;2024-02-21T03:24:48;101567.66;;;7.66;96.42
80777;BME280;70169;51.262;6.336;2024-02-21T03:27:03;101574.06;;;7.64;97.00
80777;BME280;70169;51.262;6.336;2024-02-21T03:29:19;101576.03;;;7.62;96.18
80777;BME280;70169;51.262;6.336;2024-02-21T03:31:34;101574.88;;;7.64;96.25
80777;BME280;70169;51.262;6.336;2024-02-21T03:33:50;101569.09;;;7.61;96.82
80777;BME280;70169;51.262;6.336;2024-02-21T03:36:05;101575.53;;;7.66;96.27
80777;BME280;70169;51.262;6.336;2024-02-21T03:38:21;101568.78;;;7.64;96.54
80777;BME280;70169;51.262;6.336;2024-02-21T03:40:36;101568.44;;;7.59;96.63
80777;BME280;70169;51.262;6.336;2024-02-21T03:42:51;101566.81;;;7.66;96.76
80777;BME280;70169;51.262;6.336;2024-02-21T03:45:07;101573.88;;;7.65;95.76
80777;BME280;70169;51.262;6.336;2024-02-21T03:47:22;101568.31;;;7.69;95.21
80777;BME280;70169;51.262;6.336;2024-02-21T03:49:38;101563.69;;;7.62;94.95
80777;BME280;70169;51.262;6.336;2024-02-21T03:51:53;101558.72;;;7.59;95.15
80777;BME280;70169;51.262;6.336;2024-02-21T03:54:08;101569.91;;;7.61;95.08
80777;BME280;70169;51.262;6.336;2024-02-21T03:56:24;101558.41;;;7.62;94.64
80777;BME280;70169;51.262;6.336;2024-02-21T03:58:39;101549.88;;;7.60;94.59
80777;BME280;70169;51.262;6.336;2024-02-21T04:00:54;101541.97;;;7.60;94.37
80777;BME280;70169;51.262;6.336;2024-02-21T04:03:10;101535.38;;;7.56;95.10
80777;BME280;70169;51.262;6.336;2024-02-21T04:05:25;101527.47;;;7.56;94.95
80777;BME280;70169;51.262;6.336;2024-02-21T04:07:40;101530.44;;;7.53;94.71
80777;BME280;70169;51.262;6.336;2024-02-21T04:09:56;101525.31;;;7.52;95.03
80777;BME280;70169;51.262;6.336;2024-02-21T04:12:11;101530.41;;;7.45;95.42
80777;BME280;70169;51.262;6.336;2024-02-21T04:14:26;101514.94;;;7.42;95.38
80777;BME280;70169;51.262;6.336;2024-02-21T04:16:42;101526.16;;;7.44;95.17
80777;BME280;70169;51.262;6.336;2024-02-21T04:18:57;101520.34;;;7.40;95.57
80777;BME280;70169;51.262;6.336;2024-02-21T04:21:14;101527.94;;;7.43;96.11
80777;BME280;70169;51.262;6.336;2024-02-21T04:23:31;101526.16;;;7.44;95.54
80777;BME280;70169;51.262;6.336;2024-02-21T04:25:46;101513.97;;;7.43;95.88
80777;BME280;70169;51.262;6.336;2024-02-21T04:28:02;101517.25;;;7.45;96.02
80777;BME280;70169;51.262;6.336;2024-02-21T04:30:18;101523.50;;;7.44;95.24
80777;BME280;70169;51.262;6.336;2024-02-21T04:32:33;101512.31;;;7.42;94.85
80777;BME280;70169;51.262;6.336;2024-02-21T04:34:48;101520.72;;;7.45;94.64
80777;BME280;70169;51.262;6.336;2024-02-21T04:37:04;101513.81;;;7.44;95.21
80777;BME280;70169;51.262;6.336;2024-02-21T04:39:19;101524.66;;;7.49;93.77
80777;BME280;70169;51.262;6.336;2024-02-21T04:41:34;101516.28;;;7.46;94.11
80777;BME280;70169;51.262;6.336;2024-02-21T04:43:50;101522.34;;;7.46;94.13
80777;BME280;70169;51.262;6.336;2024-02-21T04:46:05;101513.97;;;7.43;94.89
80777;BME280;70169;51.262;6.336;2024-02-21T04:48:20;101514.44;;;7.38;94.58
80777;BME280;70169;51.262;6.336;2024-02-21T04:50:36;101511.97;;;7.37;94.60
80777;BME280;70169;51.262;6.336;2024-02-21T04:52:52;101516.41;;;7.36;94.37
80777;BME280;70169;51.262;6.336;2024-02-21T04:55:07;101515.56;;;7.36;94.52
80777;BME280;70169;51.262;6.336;2024-02-21T04:57:23;101509.34;;;7.37;94.68
80777;BME280;70169;51.262;6.336;2024-02-21T04:59:38;101517.06;;;7.38;94.03
80777;BME280;70169;51.262;6.336;2024-02-21T05:01:53;101516.25;;;7.38;94.41
80777;BME280;70169;51.262;6.336;2024-02-21T05:04:09;101519.56;;;7.48;94.12
80777;BME280;70169;51.262;6.336;2024-02-21T05:06:24;101519.88;;;7.45;94.18
80777;BME280;70169;51.262;6.336;2024-02-21T05:08:40;101515.09;;;7.40;94.59
80777;BME280;70169;51.262;6.336;2024-02-21T05:10:55;101517.06;;;7.38;94.45
80777;BME280;70169;51.262;6.336;2024-02-21T05:13:10;101513.31;;;7.41;95.01
80777;BME280;70169;51.262;6.336;2024-02-21T05:15:26;101513.31;;;7.41;95.00
80777;BME280;70169;51.262;6.336;2024-02-21T05:17:41;101515.25;;;7.39;95.24
80777;BME280;70169;51.262;6.336;2024-02-21T05:19:57;101510.00;;;7.39;95.04
80777;BME280;70169;51.262;6.336;2024-02-21T05:22:13;101502.94;;;7.39;95.49
80777;BME280;70169;51.262;6.336;2024-02-21T05:24:28;101508.03;;;7.41;95.24
80777;BME280;70169;51.262;6.336;2024-02-21T05:26:44;101516.75;;;7.41;95.50
80777;BME280;70169;51.262;6.336;2024-02-21T05:29:00;101513.81;;;7.44;95.62
80777;BME280;70169;51.262;6.336;2024-02-21T05:31:19;101513.31;;;7.41;96.21
80777;BME280;70169;51.262;6.336;2024-02-21T05:33:34;101501.13;;;7.40;96.08
80777;BME280;70169;51.262;6.336;2024-02-21T05:35:50;101491.09;;;7.35;96.24
80777;BME280;70169;51.262;6.336;2024-02-21T05:38:06;101494.53;;;7.36;96.26
80777;BME280;70169;51.262;6.336;2024-02-21T05:40:26;101488.28;;;7.37;96.24
80777;BME280;70169;51.262;6.336;2024-02-21T05:43:00;101489.25;;;7.36;96.74
80777;BME280;70169;51.262;6.336;2024-02-21T05:45:15;101497.84;;;7.38;97.08
80777;BME280;70169;51.262;6.336;2024-02-21T05:47:30;101488.13;;;7.38;97.04
80777;BME280;70169;51.262;6.336;2024-02-21T05:49:46;101493.41;;;7.38;96.53
80777;BME280;70169;51.262;6.336;2024-02-21T05:52:01;101478.94;;;7.34;96.97
80777;BME280;70169;51.262;6.336;2024-02-21T05:54:17;101479.25;;;7.31;96.58
80777;BME280;70169;51.262;6.336;2024-02-21T05:56:32;101479.09;;;7.33;96.61
80777;BME280;70169;51.262;6.336;2024-02-21T05:58:48;101463.47;;;7.31;96.75
80777;BME280;70169;51.262;6.336;2024-02-21T06:01:03;101466.91;;;7.32;96.91
80777;BME280;70169;51.262;6.336;2024-02-21T06:03:19;101454.91;;;7.29;97.08
80777;BME280;70169;51.262;6.336;2024-02-21T06:05:38;101449.63;;;7.29;96.89
80777;BME280;70169;51.262;6.336;2024-02-21T06:07:53;101453.09;;;7.29;96.57
80777;BME280;70169;51.262;6.336;2024-02-21T06:10:09;101451.28;;;7.30;96.63
80777;BME280;70169;51.262;6.336;2024-02-21T06:12:24;101455.06;;;7.27;96.61
80777;BME280;70169;51.262;6.336;2024-02-21T06:14:39;101453.44;;;7.26;96.92
80777;BME280;70169;51.262;6.336;2024-02-21T06:16:55;101450.47;;;7.29;97.03
80777;BME280;70169;51.262;6.336;2024-02-21T06:19:10;101455.75;;;7.29;96.82
80777;BME280;70169;51.262;6.336;2024-02-21T06:21:29;101448.66;;;7.30;96.92
80777;BME280;70169;51.262;6.336;2024-02-21T06:23:44;101439.97;;;7.29;96.57
80777;BME280;70169;51.262;6.336;2024-02-21T06:26:00;101441.91;;;7.27;96.38
80777;BME280;70169;51.262;6.336;2024-02-21T06:28:15;101435.84;;;7.27;96.93
80777;BME280;70169;51.262;6.336;2024-02-21T06:30:30;101429.28;;;7.31;96.55
80777;BME280;70169;51.262;6.336;2024-02-21T06:32:46;101423.34;;;7.29;96.19
80777;BME280;70169;51.262;6.336;2024-02-21T06:35:01;101416.28;;;7.29;96.44
80777;BME280;70169;51.262;6.336;2024-02-21T06:37:17;101417.75;;;7.32;96.17
80777;BME280;70169;51.262;6.336;2024-02-21T06:39:32;101423.19;;;7.30;96.85
80777;BME280;70169;51.262;6.336;2024-02-21T06:41:47;101422.38;;;7.30;95.87
80777;BME280;70169;51.262;6.336;2024-02-21T06:44:03;101427.31;;;7.33;96.04
80777;BME280;70169;51.262;6.336;2024-02-21T06:46:26;101420.22;;;7.34;96.50
80777;BME280;70169;51.262;6.336;2024-02-21T06:48:41;101412.84;;;7.37;96.47
80777;BME280;70169;51.262;6.336;2024-02-21T06:50:57;101415.81;;;7.34;96.31
80777;BME280;70169;51.262;6.336;2024-02-21T06:53:12;101420.88;;;7.36;95.65
80777;BME280;70169;51.262;6.336;2024-02-21T06:55:27;101413.00;;;7.36;95.46
80777;BME280;70169;51.262;6.336;2024-02-21T06:57:43;101418.09;;;7.37;95.82
80777;BME280;70169;51.262;6.336;2024-02-21T06:59:58;101416.47;;;7.36;95.29
80777;BME280;70169;51.262;6.336;2024-02-21T07:02:14;101418.47;;;7.42;95.59
80777;BME280;70169;51.262;6.336;2024-02-21T07:04:29;101405.63;;;7.39;95.56
80777;BME280;70169;51.262;6.336;2024-02-21T07:06:45;101415.50;;;7.45;94.75
80777;BME280;70169;51.262;6.336;2024-02-21T07:09:00;101422.88;;;7.42;94.98
80777;BME280;70169;51.262;6.336;2024-02-21T07:11:16;101428.84;;;7.52;94.97
80777;BME280;70169;51.262;6.336;2024-02-21T07:13:32;101420.09;;;7.52;94.84
80777;BME280;70169;51.262;6.336;2024-02-21T07:15:48;101416.00;;;7.49;94.67
80777;BME280;70169;51.262;6.336;2024-02-21T07:18:03;101416.97;;;7.48;95.16
80777;BME280;70169;51.262;6.336;2024-02-21T07:20:19;101418.94;;;7.46;94.86
80777;BME280;70169;51.262;6.336;2024-02-21T07:22:34;101415.66;;;7.44;95.03
80777;BME280;70169;51.262;6.336;2024-02-21T07:24:50;101413.34;;;7.41;95.42
80777;BME280;70169;51.262;6.336;2024-02-21T07:27:05;101420.94;;;7.44;94.89
80777;BME280;70169;51.262;6.336;2024-02-21T07:29:20;101411.72;;;7.48;94.94
80777;BME280;70169;51.262;6.336;2024-02-21T07:31:41;101414.81;;;7.43;95.04
80777;BME280;70169;51.262;6.336;2024-02-21T07:33:56;101418.31;;;7.52;94.84
80777;BME280;70169;51.262;6.336;2024-02-21T07:36:11;101415.84;;;7.51;94.96
80777;BME280;70169;51.262;6.336;2024-02-21T07:38:27;101409.72;;;7.50;94.84
80777;BME280;70169;51.262;6.336;2024-02-21T07:40:44;101414.03;;;7.51;95.01
80777;BME280;70169;51.262;6.336;2024-02-21T07:42:59;101415.19;;;7.57;94.40
80777;BME280;70169;51.262;6.336;2024-02-21T07:45:15;101414.03;;;7.59;93.69
80777;BME280;70169;51.262;6.336;2024-02-21T07:47:30;101403.81;;;7.56;93.57
80777;BME280;70169;51.262;6.336;2024-02-21T07:49:46;101397.75;;;7.64;92.95
80777;BME280;70169;51.262;6.336;2024-02-21T07:52:01;101401.88;;;7.58;92.75
80777;BME280;70169;51.262;6.336;2024-02-21T07:54:16;101405.31;;;7.59;93.46
80777;BME280;70169;51.262;6.336;2024-02-21T07:56:32;101402.53;;;7.60;93.82
80777;BME280;70169;51.262;6.336;2024-02-21T07:58:47;101398.56;;;7.64;93.39
80777;BME280;70169;51.262;6.336;2024-02-21T08:01:03;101386.59;;;7.62;93.34
80777;BME280;70169;51.262;6.336;2024-02-21T08:03:18;101388.72;;;7.58;94.05
80777;BME280;70169;51.262;6.336;2024-02-21T08:05:36;101387.41;;;7.62;93.79
80777;BME280;70169;51.262;6.336;2024-02-21T08:07:52;101376.88;;;7.62;94.30
80777;BME280;70169;51.262;6.336;2024-02-21T08:10:07;101361.25;;;7.61;94.41
80777;BME280;70169;51.262;6.336;2024-02-21T08:12:26;101360.91;;;7.64;94.14
80777;BME280;70169;51.262;6.336;2024-02-21T08:14:42;101358.44;;;7.62;94.24
80777;BME280;70169;51.262;6.336;2024-02-21T08:16:58;101352.88;;;7.65;93.85
80777;BME280;70169;51.262;6.336;2024-02-21T08:19:14;101335.91;;;7.60;93.38
80777;BME280;70169;51.262;6.336;2024-02-21T08:21:30;101335.25;;;7.58;93.49
80777;BME280;70169;51.262;6.336;2024-02-21T08:23:45;101336.59;;;7.54;93.86
80777;BME280;70169;51.262;6.336;2024-02-21T08:26:03;101337.56;;;7.61;93.28
80777;BME280;70169;51.262;6.336;2024-02-21T08:28:19;101331.00;;;7.57;93.34
80777;BME280;70169;51.262;6.336;2024-02-21T08:30:34;101337.56;;;7.61;92.60
80777;BME280;70169;51.262;6.336;2024-02-21T08:32:49;101331.66;;;7.59;92.46
80777;BME280;70169;51.262;6.336;2024-02-21T08:35:05;101333.28;;;7.60;93.02
80777;BME280;70169;51.262;6.336;2024-02-21T08:37:21;101323.75;;;7.59;92.45
80777;BME280;70169;51.262;6.336;2024-02-21T08:39:36;101325.38;;;7.60;92.45
80777;BME280;70169;51.262;6.336;2024-02-21T08:41:51;101324.25;;;7.62;92.42
80777;BME280;70169;51.262;6.336;2024-02-21T08:44:07;101305.84;;;7.62;92.46
80777;BME280;70169;51.262;6.336;2024-02-21T08:46:23;101313.22;;;7.75;92.43
80777;BME280;70169;51.262;6.336;2024-02-21T08:48:39;101304.03;;;7.71;91.36
80777;BME280;70169;51.262;6.336;2024-02-21T08:50:54;101284.59;;;7.72;91.22
80777;BME280;70169;51.262;6.336;2024-02-21T08:53:10;101300.72;;;7.77;91.33
80777;BME280;70169;51.262;6.336;2024-02-21T08:55:26;101285.75;;;7.78;91.40
80777;BME280;70169;51.262;6.336;2024-02-21T08:57:41;101287.06;;;7.82;90.77
80777;BME280;70169;51.262;6.336;2024-02-21T08:59:57;101289.19;;;7.87;90.75
80777;BME280;70169;51.262;6.336;2024-02-21T09:02:12;101273.72;;;7.83;90.10
80777;BME280;70169;51.262;6.336;2024-02-21T09:04:28;101272.75;;;7.84;90.88
80777;BME280;70169;51.262;6.336;2024-02-21T09:06:43;101273.72;;;7.92;90.13
80777;BME280;70169;51.262;6.336;2024-02-21T09:09:00;101269.63;;;7.89;90.82
80777;BME280;70169;51.262;6.336;2024-02-21T09:11:15;101268.94;;;7.95;90.96
80777;BME280;70169;51.262;6.336;2024-02-21T09:13:31;101275.34;;;8.01;89.99
80777;BME280;70169;51.262;6.336;2024-02-21T09:15:47;101267.59;;;8.08;88.98
80777;BME280;70169;51.262;6.336;2024-02-21T09:18:03;101261.19;;;8.02;89.73
80777;BME280;70169;51.262;6.336;2024-02-21T09:20:19;101253.97;;;7.96;89.20
80777;BME280;70169;51.262;6.336;2024-02-21T09:22:34;101249.03;;;7.93;89.38
80777;BME280;70169;51.262;6.336;2024-02-21T09:24:50;101242.63;;;7.95;89.38
80777;BME280;70169;51.262;6.336;2024-02-21T09:27:06;101245.06;;;7.97;89.85
80777;BME280;70169;51.262;6.336;2024-02-21T09:29:21;101231.72;;;7.98;89.45
80777;BME280;70169;51.262;6.336;2024-02-21T09:31:37;101231.72;;;7.98;88.90
80777;BME280;70169;51.262;6.336;2024-02-21T09:33:53;101227.47;;;7.97;89.39
80777;BME280;70169;51.262;6.336;2024-02-21T09:36:09;101226.81;;;8.03;88.29
80777;BME280;70169;51.262;6.336;2024-02-21T09:38:24;101218.72;;;8.05;88.30
80777;BME280;70169;51.262;6.336;2024-02-21T09:40:40;101225.13;;;8.11;88.02
80777;BME280;70169;51.262;6.336;2024-02-21T09:43:04;101222.31;;;8.12;87.64
80777;BME280;70169;51.262;6.336;2024-02-21T09:45:24;101211.63;;;8.14;87.78
80777;BME280;70169;51.262;6.336;2024-02-21T09:50:17;101221.47;;;8.20;87.01
80777;BME280;70169;51.262;6.336;2024-02-21T09:52:36;101216.50;;;8.25;87.66
80777;BME280;70169;51.262;6.336;2024-02-21T09:54:53;101210.41;;;8.25;87.65
80777;BME280;70169;51.262;6.336;2024-02-21T09:57:09;101210.88;;;8.28;87.18
80777;BME280;70169;51.262;6.336;2024-02-21T09:59:24;101206.25;;;8.30;87.21
80777;BME280;70169;51.262;6.336;2024-02-21T10:01:40;101208.03;;;8.38;86.53
80777;BME280;70169;51.262;6.336;2024-02-21T10:03:55;101204.88;;;8.43;86.29
80777;BME280;70169;51.262;6.336;2024-02-21T10:06:10;101204.56;;;8.46;86.33
80777;BME280;70169;51.262;6.336;2024-02-21T10:08:26;101194.34;;;8.51;84.75
80777;BME280;70169;51.262;6.336;2024-02-21T10:10:43;101194.00;;;8.54;85.53
80777;BME280;70169;51.262;6.336;2024-02-21T10:12:58;101188.50;;;8.64;84.64
80777;BME280;70169;51.262;6.336;2024-02-21T10:15:22;101178.69;;;8.72;84.72
80777;BME280;70169;51.262;6.336;2024-02-21T10:20:50;101162.44;;;8.92;83.33
80777;BME280;70169;51.262;6.336;2024-02-21T10:23:21;101155.06;;;9.02;82.94
80777;BME280;70169;51.262;6.336;2024-02-21T10:25:39;101151.06;;;9.06;81.94
80777;BME280;70169;51.262;6.336;2024-02-21T10:27:58;101158.94;;;9.15;81.91
80777;BME280;70169;51.262;6.336;2024-02-21T10:30:14;101165.28;;;9.20;81.00
80777;BME280;70169;51.262;6.336;2024-02-21T10:32:34;101153.66;;;9.15;81.68
80777;BME280;70169;51.262;6.336;2024-02-21T10:35:24;101129.16;;;9.06;81.34
80777;BME280;70169;51.262;6.336;2024-02-21T10:37:53;101135.28;;;9.21;81.29
80777;BME280;70169;51.262;6.336;2024-02-21T10:40:26;101113.44;;;9.12;81.88
80777;BME280;70169;51.262;6.336;2024-02-21T10:42:45;101106.09;;;9.23;81.61
80777;BME280;70169;51.262;6.336;2024-02-21T10:45:03;101115.66;;;9.39;81.24
80777;BME280;70169;51.262;6.336;2024-02-21T10:47:22;101103.09;;;9.41;80.80
80777;BME280;70169;51.262;6.336;2024-02-21T10:49:44;101112.66;;;9.42;81.02
80777;BME280;70169;51.262;6.336;2024-02-21T10:52:06;101105.00;;;9.47;80.67
80777;BME280;70169;51.262;6.336;2024-02-21T10:54:42;101097.91;;;9.47;80.63
80777;BME280;70169;51.262;6.336;2024-02-21T10:57:00;101091.09;;;9.53;79.63
80777;BME280;70169;51.262;6.336;2024-02-21T10:59:18;101078.53;;;9.55;80.40
80777;BME280;70169;51.262;6.336;2024-02-21T11:01:33;101069.69;;;9.63;80.29
80777;BME280;70169;51.262;6.336;2024-02-21T11:03:53;101059.56;;;9.66;80.25
80777;BME280;70169;51.262;6.336;2024-02-21T11:06:11;101053.75;;;9.71;79.91
80777;BME280;70169;51.262;6.336;2024-02-21T11:08:27;101034.25;;;9.72;79.07
80777;BME280;70169;51.262;6.336;2024-02-21T11:10:46;101032.25;;;9.74;79.26
80777;BME280;70169;51.262;6.336;2024-02-21T11:13:07;101031.47;;;9.80;79.62
80777;BME280;70169;51.262;6.336;2024-02-21T11:15:26;101020.56;;;9.83;79.36
80777;BME280;70169;51.262;6.336;2024-02-21T11:17:53;101013.00;;;9.80;78.71
80777;BME280;70169;51.262;6.336;2024-02-21T11:20:12;100992.09;;;9.79;78.91
80777;BME280;70169;51.262;6.336;2024-02-21T11:22:28;100982.97;;;9.81;80.08
80777;BME280;70169;51.262;6.336;2024-02-21T11:24:46;100984.25;;;9.85;78.84
80777;BME280;70169;51.262;6.336;2024-02-21T11:27:09;100974.53;;;9.93;78.32
80777;BME280;70169;51.262;6.336;2024-02-21T11:29:27;100976.13;;;9.87;79.14
80777;BME280;70169;51.262;6.336;2024-02-21T11:31:44;100970.47;;;9.90;79.12
80777;BME280;70169;51.262;6.336;2024-02-21T11:34:00;100975.44;;;10.00;78.69
80777;BME280;70169;51.262;6.336;2024-02-21T11:36:24;100959.59;;;10.00;78.42
80777;BME280;70169;51.262;6.336;2024-02-21T11:38:40;100955.75;;;10.02;77.91
80777;BME280;70169;51.262;6.336;2024-02-21T11:40:55;100944.22;;;10.10;78.10
80777;BME280;70169;51.262;6.336;2024-02-21T11:43:10;100939.09;;;10.02;78.12
80777;BME280;70169;51.262;6.336;2024-02-21T11:45:26;100944.81;;;10.06;77.37
80777;BME280;70169;51.262;6.336;2024-02-21T11:47:42;100946.69;;;10.12;77.41
80777;BME280;70169;51.262;6.336;2024-02-21T11:49:58;100948.56;;;10.18;77.00
80777;BME280;70169;51.262;6.336;2024-02-21T11:52:13;100942.25;;;10.19;77.31
80777;BME280;70169;51.262;6.336;2024-02-21T11:54:30;100934.22;;;10.27;77.33
80777;BME280;70169;51.262;6.336;2024-02-21T11:56:47;100915.59;;;10.35;76.48
80777;BME280;70169;51.262;6.336;2024-02-21T11:59:02;100927.41;;;10.39;76.44
80777;BME280;70169;51.262;6.336;2024-02-21T12:01:18;100916.06;;;10.46;76.63
80777;BME280;70169;51.262;6.336;2024-02-21T12:03:33;100918.75;;;10.52;76.21
80777;BME280;70169;51.262;6.336;2024-02-21T12:05:53;100918.31;;;10.49;76.75
80777;BME280;70169;51.262;6.336;2024-02-21T12:08:09;100893.34;;;10.51;75.89